Time;durP1;ratioP1;P1;durP2;ratioP2;P2;SDS_P1;SDS_P2;PMS_P1;PMS_P2;Temp;Humidity;BMP_temperature;BMP_pressure;BME280_temperature;BME280_humidity;BME280_pressure;Samples;Min_cycle;Max_cycle;Signal;HPM_P1;HPM_P2
2022/07/10 00:02:08;;;;;;;;;;;;;;;-142.75;100.00;78035.09;4998733;28;19957;-70
2022/07/10 00:04:34;;;;;;;;;;;;;;;-142.75;100.00;78042.97;5004313;28;19922;-70
2022/07/10 00:07:01;;;;;;;;;;;;;;;-142.75;100.00;78037.06;4998262;28;19918;-70
2022/07/10 00:09:28;;;;;;;;;;;;;;;-142.75;100.00;78039.03;4999397;28;20018;-71
2022/07/10 00:11:53;;;;;;;;;;;;;;;-142.75;100.00;78037.06;4994152;28;20440;-69
2022/07/10 00:14:19;;;;;;;;;;;;;;;-142.75;100.00;78039.03;5005660;28;20005;-70
2022/07/10 00:16:45;;;;;;;;;;;;;;;-142.75;100.00;78033.13;5003658;28;19920;-70
2022/07/10 00:19:10;;;;;;;;;;;;;;;-142.75;100.00;78039.03;5008688;28;20003;-71
2022/07/10 00:21:35;;;;;;;;;;;;;;;-142.75;100.00;78025.25;5014696;22;19926;-67
2022/07/10 00:24:00;;;;;;;;;;;;;;;-142.75;100.00;78023.28;4973327;28;20464;-68
2022/07/10 00:26:25;;;;;;;;;;;;;;;-142.75;100.00;78015.41;4973349;28;19914;-68
2022/07/10 00:28:51;;;;;;;;;;;;;;;-142.75;100.00;78025.25;4971955;28;19919;-68
2022/07/10 00:31:16;;;;;;;;;;;;;;;-142.75;100.00;78023.28;4973403;28;20392;-68
2022/07/10 00:33:42;;;;;;;;;;;;;;;-142.75;100.00;78031.16;4973555;28;20296;-68
2022/07/10 00:36:09;;;;;;;;;;;;;;;-142.75;100.00;78035.09;4972777;28;21446;-67
2022/07/10 00:38:34;;;;;;;;;;;;;;;-142.75;100.00;78035.09;4973279;28;19961;-67
2022/07/10 00:40:59;;;;;;;;;;;;;;;-142.75;100.00;78039.03;4972075;28;19914;-67
2022/07/10 00:43:24;;;;;;;;;;;;;;;-142.75;100.00;78042.97;4972102;28;20380;-67
2022/07/10 00:45:49;;;;;;;;;;;;;;;-142.75;100.00;78031.16;4973291;28;19918;-67
2022/07/10 00:48:15;;;;;;;;;;;;;;;-142.75;100.00;78031.16;4973078;28;19918;-68
2022/07/10 00:50:42;;;;;;;;;;;;;;;-142.75;100.00;78027.22;4971943;28;20080;-68
2022/07/10 00:53:07;;;;;;;;;;;;;;;-142.75;100.00;78031.16;4973248;28;19980;-68
2022/07/10 00:55:33;;;;;;;;;;;;;;;-142.75;100.00;78031.16;4973219;28;20372;-69
2022/07/10 00:57:59;;;;;;;;;;;;;;;-142.75;100.00;78033.13;4972826;28;19921;-69
2022/07/10 01:00:25;;;;;;;;;;;;;;;-142.75;100.00;78031.16;4973130;28;19997;-68
2022/07/10 01:02:51;;;;;;;;;;;;;;;-142.75;100.00;78046.91;4973088;28;20008;-68
2022/07/10 01:05:16;;;;;;;;;;;;;;;-142.75;100.00;78044.94;4973099;28;19956;-68
2022/07/10 01:07:41;;;;;;;;;;;;;;;-142.75;100.00;78048.88;4972926;28;19968;-69
2022/07/10 01:10:07;;;;;;;;;;;;;;;-142.75;100.00;78050.84;4972771;28;20387;-69
2022/07/10 01:12:32;;;;;;;;;;;;;;;-142.75;100.00;78048.88;4972895;28;20415;-68
2022/07/10 01:14:58;;;;;;;;;;;;;;;-142.75;100.00;78041.00;4972922;28;19921;-67
2022/07/10 01:17:24;;;;;;;;;;;;;;;-142.75;100.00;78039.03;4972948;28;19914;-68
2022/07/10 01:19:49;;;;;;;;;;;;;;;-142.75;100.00;78046.91;4971283;28;20298;-69
2022/07/10 01:22:14;;;;;;;;;;;;;;;-142.75;100.00;78042.97;4972622;28;19918;-68
2022/07/10 01:24:39;;;;;;;;;;;;;;;-142.75;100.00;78042.97;4972737;28;20379;-68
2022/07/10 01:27:05;;;;;;;;;;;;;;;-142.75;100.00;78039.03;4972673;28;19920;-69
2022/07/10 01:29:30;;;;;;;;;;;;;;;-142.75;100.00;78039.03;4972254;28;19919;-68
2022/07/10 01:31:56;;;;;;;;;;;;;;;-142.75;100.00;78039.03;4972578;28;19941;-68
2022/07/10 01:34:21;;;;;;;;;;;;;;;-142.75;100.00;78039.03;4972632;28;19957;-68
2022/07/10 01:36:47;;;;;;;;;;;;;;;-142.75;100.00;78041.00;4972605;28;19918;-68
2022/07/10 01:39:12;;;;;;;;;;;;;;;-142.75;100.00;78039.03;4972352;28;19914;-68
2022/07/10 01:41:38;;;;;;;;;;;;;;;-142.75;100.00;78041.00;4972358;28;19915;-68
2022/07/10 01:44:03;;;;;;;;;;;;;;;-142.75;100.00;78042.97;4972402;28;19960;-68
2022/07/10 01:46:28;;;;;;;;;;;;;;;-142.75;100.00;78048.88;4971165;28;19918;-69
2022/07/10 01:48:54;;;;;;;;;;;;;;;-142.75;100.00;78050.84;4970760;28;19972;-69
2022/07/10 01:51:19;;;;;;;;;;;;;;;-142.75;100.00;78052.81;4971036;28;19918;-68
2022/07/10 01:53:45;;;;;;;;;;;;;;;-142.75;100.00;78054.81;4972406;28;20384;-68
2022/07/10 01:56:11;;;;;;;;;;;;;;;-142.75;100.00;78054.81;4972180;28;20008;-68
2022/07/10 01:58:37;;;;;;;;;;;;;;;-142.75;100.00;78066.63;4971979;28;20009;-68
2022/07/10 02:01:03;;;;;;;;;;;;;;;-142.75;100.00;78060.72;4970877;28;19969;-68
2022/07/10 02:06:12;;;;;;;;;;;;;;;-142.75;100.00;78072.53;4972510;28;19965;-68
2022/07/10 02:08:38;;;;;;;;;;;;;;;-142.75;100.00;78070.56;4970553;28;19945;-68
2022/07/10 02:11:03;;;;;;;;;;;;;;;-142.75;100.00;78062.69;4971859;28;20383;-69
2022/07/10 02:13:28;;;;;;;;;;;;;;;-142.75;100.00;78062.69;4972047;28;19922;-68
2022/07/10 02:15:54;;;;;;;;;;;;;;;-142.75;100.00;78064.66;4971978;28;20388;-68
2022/07/10 02:18:19;;;;;;;;;;;;;;;-142.75;100.00;78074.50;4971824;28;19984;-68
2022/07/10 02:20:44;;;;;;;;;;;;;;;-142.75;100.00;78072.53;4971712;28;20491;-69
2022/07/10 02:23:09;;;;;;;;;;;;;;;-142.75;100.00;78062.69;4971940;28;19913;-68
2022/07/10 02:25:35;;;;;;;;;;;;;;;-142.75;100.00;78068.59;4971734;28;20070;-68
2022/07/10 02:28:00;;;;;;;;;;;;;;;-142.75;100.00;78070.56;4970218;28;19960;-68
2022/07/10 02:30:25;;;;;;;;;;;;;;;-142.75;100.00;78066.63;4969908;28;19919;-68
2022/07/10 02:32:50;;;;;;;;;;;;;;;-142.75;100.00;78062.69;4971652;28;20355;-67
2022/07/10 02:35:16;;;;;;;;;;;;;;;-142.75;100.00;78058.72;4971761;28;19914;-68
2022/07/10 02:37:41;;;;;;;;;;;;;;;-142.75;100.00;78052.81;4970350;28;19920;-68
2022/07/10 02:40:06;;;;;;;;;;;;;;;-142.75;100.00;78031.16;4971284;28;19918;-68
2022/07/10 02:42:31;;;;;;;;;;;;;;;-142.75;100.00;78019.34;4971531;28;19964;-68
2022/07/10 02:44:57;;;;;;;;;;;;;;;-142.75;100.00;78005.56;4971582;28;19964;-68
2022/07/10 02:47:22;;;;;;;;;;;;;;;-142.75;100.00;78003.59;4971611;28;19957;-68
2022/07/10 02:49:47;;;;;;;;;;;;;;;-142.75;100.00;78011.47;4971125;28;20020;-68
2022/07/10 02:52:12;;;;;;;;;;;;;;;-142.75;100.00;78017.38;4970113;28;19914;-68
2022/07/10 02:54:37;;;;;;;;;;;;;;;-142.75;100.00;78015.41;4971396;28;19914;-68
2022/07/10 02:57:03;;;;;;;;;;;;;;;-142.75;100.00;78019.34;4971330;28;20256;-68
2022/07/10 02:59:28;;;;;;;;;;;;;;;-142.75;100.00;78019.34;4969885;28;20292;-69
2022/07/10 03:01:53;;;;;;;;;;;;;;;-142.75;100.00;78021.31;4971276;28;19958;-68
2022/07/10 03:04:18;;;;;;;;;;;;;;;-142.75;100.00;78015.41;4971287;28;19914;-68
2022/07/10 03:06:44;;;;;;;;;;;;;;;-142.75;100.00;78009.50;4971177;28;19922;-68
2022/07/10 03:09:09;;;;;;;;;;;;;;;-142.75;100.00;77993.75;4969563;28;19926;-68
2022/07/10 03:11:34;;;;;;;;;;;;;;;-142.75;100.00;77979.97;4971089;28;19914;-68
2022/07/10 03:13:59;;;;;;;;;;;;;;;-142.75;100.00;77981.94;4971371;28;19918;-67
2022/07/10 03:16:24;;;;;;;;;;;;;;;-142.75;100.00;77976.03;4971074;28;20292;-69
2022/07/10 03:18:50;;;;;;;;;;;;;;;-142.75;100.00;77972.09;4969561;28;20052;-68
2022/07/10 03:21:15;;;;;;;;;;;;;;;-142.75;100.00;77956.34;4970871;28;19918;-68
2022/07/10 03:23:40;;;;;;;;;;;;;;;-142.75;100.00;77952.41;4970919;28;20295;-68
2022/07/10 03:26:05;;;;;;;;;;;;;;;-142.75;100.00;77946.50;4969690;28;20283;-68
2022/07/10 03:28:30;;;;;;;;;;;;;;;-142.75;100.00;77938.63;4970727;28;20379;-68
2022/07/10 03:30:56;;;;;;;;;;;;;;;-142.75;100.00;77936.66;4970866;28;19918;-68
2022/07/10 03:33:21;;;;;;;;;;;;;;;-142.75;100.00;77926.81;4970839;28;19968;-68
2022/07/10 03:35:46;;;;;;;;;;;;;;;-142.75;100.00;77932.72;4970846;28;20017;-68
2022/07/10 03:38:11;;;;;;;;;;;;;;;-142.75;100.00;77924.84;4970486;28;19915;-68
2022/07/10 03:40:37;;;;;;;;;;;;;;;-142.75;100.00;77918.94;4970629;28;19918;-68
2022/07/10 03:43:02;;;;;;;;;;;;;;;-142.75;100.00;77909.06;4969683;28;20540;-69
2022/07/10 03:45:27;;;;;;;;;;;;;;;-142.75;100.00;77907.09;4970766;28;19921;-68
2022/07/10 03:47:52;;;;;;;;;;;;;;;-142.75;100.00;77911.06;4970416;28;19921;-67
2022/07/10 03:50:17;;;;;;;;;;;;;;;-142.75;100.00;77895.28;4970625;28;19925;-68
2022/07/10 03:52:44;;;;;;;;;;;;;;;-142.75;100.00;77885.44;4969263;28;20427;-68
2022/07/10 03:55:09;;;;;;;;;;;;;;;-142.75;100.00;77877.56;4970530;28;19914;-68
2022/07/10 04:00:18;;;;;;;;;;;;;;;-142.75;100.00;77889.38;4970631;28;19953;-68
2022/07/10 04:02:43;;;;;;;;;;;;;;;-142.75;100.00;77881.50;4970515;28;19956;-69
2022/07/10 04:05:09;;;;;;;;;;;;;;;-142.75;100.00;77879.53;4969264;28;20424;-68
2022/07/10 04:07:34;;;;;;;;;;;;;;;-142.75;100.00;77871.66;4970366;28;19914;-68
2022/07/10 04:10:00;;;;;;;;;;;;;;;-142.75;100.00;77865.75;4970073;28;19925;-68
2022/07/10 04:12:25;;;;;;;;;;;;;;;-142.75;100.00;77859.84;4969066;28;19968;-68
2022/07/10 04:14:51;;;;;;;;;;;;;;;-142.75;100.00;77850.00;4970400;28;19918;-68
2022/07/10 04:17:16;;;;;;;;;;;;;;;-142.75;100.00;77855.91;4970283;28;19918;-68
2022/07/10 04:19:42;;;;;;;;;;;;;;;-142.75;100.00;77846.06;4970018;28;19921;-68
2022/07/10 04:22:07;;;;;;;;;;;;;;;-142.75;100.00;77838.19;4970097;28;19925;-68
2022/07/10 04:24:32;;;;;;;;;;;;;;;-142.75;100.00;77830.31;4970190;28;19918;-68
2022/07/10 04:26:57;;;;;;;;;;;;;;;-142.75;100.00;77824.41;4970213;28;20471;-69
2022/07/10 04:29:22;;;;;;;;;;;;;;;-142.75;100.00;77830.31;4969823;28;19926;-69
2022/07/10 04:31:48;;;;;;;;;;;;;;;-142.75;100.00;77822.44;4970084;28;20364;-69
2022/07/10 04:34:13;;;;;;;;;;;;;;;-142.75;100.00;77816.53;4968818;28;19915;-68
2022/07/10 04:36:38;;;;;;;;;;;;;;;-142.75;100.00;77810.63;4970106;28;19914;-68
2022/07/10 04:39:03;;;;;;;;;;;;;;;-142.75;100.00;77810.63;4968445;28;19921;-68
2022/07/10 04:41:28;;;;;;;;;;;;;;;-142.75;100.00;77808.66;4970011;28;19918;-69
2022/07/10 04:43:54;;;;;;;;;;;;;;;-142.75;100.00;77810.63;4969979;28;20260;-68
2022/07/10 04:46:19;;;;;;;;;;;;;;;-142.75;100.00;77808.66;4970019;28;19953;-69
2022/07/10 04:48:44;;;;;;;;;;;;;;;-142.75;100.00;77810.63;4968384;28;19914;-69
2022/07/10 04:51:09;;;;;;;;;;;;;;;-142.75;100.00;77806.69;4969946;28;19936;-68
2022/07/10 04:53:34;;;;;;;;;;;;;;;-142.75;100.00;77806.69;4970390;28;19921;-68
2022/07/10 04:56:00;;;;;;;;;;;;;;;-142.75;100.00;77794.88;4972006;28;19914;-68
2022/07/10 04:58:25;;;;;;;;;;;;;;;-142.75;100.00;77796.84;4972928;28;19918;-69
2022/07/10 05:00:50;;;;;;;;;;;;;;;-142.75;100.00;77788.97;4973104;28;20363;-68
2022/07/10 05:03:15;;;;;;;;;;;;;;;-142.75;100.00;77785.03;4971873;28;19914;-68
2022/07/10 05:05:41;;;;;;;;;;;;;;;-142.75;100.00;77790.94;4973048;28;19914;-68
2022/07/10 05:08:06;;;;;;;;;;;;;;;-142.75;100.00;77787.00;4971419;28;20019;-68
2022/07/10 05:10:31;;;;;;;;;;;;;;;-142.75;100.00;77788.97;4972942;28;20029;-67
2022/07/10 05:12:56;;;;;;;;;;;;;;;-142.75;100.00;77783.06;4971838;28;19925;-69
2022/07/10 05:15:22;;;;;;;;;;;;;;;-142.75;100.00;77779.13;4973313;28;20387;-69
2022/07/10 05:17:47;;;;;;;;;;;;;;;-142.75;100.00;77790.94;4972759;28;19929;-67
2022/07/10 05:20:12;;;;;;;;;;;;;;;-142.75;100.00;77777.16;4972693;28;19949;-68
2022/07/10 05:22:37;;;;;;;;;;;;;;;-142.75;100.00;77771.25;4972602;28;19918;-69
2022/07/10 05:25:03;;;;;;;;;;;;;;;-142.75;100.00;77761.41;4972785;28;19983;-68
2022/07/10 05:27:28;;;;;;;;;;;;;;;-142.75;100.00;77759.44;4972701;28;20287;-68
2022/07/10 05:29:53;;;;;;;;;;;;;;;-142.75;100.00;77755.50;4972369;28;19918;-69
2022/07/10 05:32:19;;;;;;;;;;;;;;;-142.75;100.00;77745.66;4972656;28;19915;-69
2022/07/10 05:34:44;;;;;;;;;;;;;;;-142.75;100.00;77731.88;4972932;28;19914;-68
2022/07/10 05:37:09;;;;;;;;;;;;;;;-142.75;100.00;77731.88;4972514;28;19961;-69
2022/07/10 05:39:34;;;;;;;;;;;;;;;-142.75;100.00;77727.94;4972287;28;19968;-69
2022/07/10 05:42:00;;;;;;;;;;;;;;;-142.75;100.00;77718.06;4972471;28;19914;-69
2022/07/10 05:44:25;;;;;;;;;;;;;;;-142.75;100.00;77708.22;4972553;28;19914;-69
2022/07/10 05:46:50;;;;;;;;;;;;;;;-142.75;100.00;77704.28;4972481;28;19914;-69
2022/07/10 05:49:16;;;;;;;;;;;;;;;-142.75;100.00;77688.53;4972012;28;19918;-69
2022/07/10 05:51:41;;;;;;;;;;;;;;;-142.75;100.00;77686.56;4972310;28;19914;-68
2022/07/10 05:54:06;;;;;;;;;;;;;;;-142.75;100.00;77672.78;4970993;28;20319;-69
2022/07/10 05:56:31;;;;;;;;;;;;;;;-142.75;100.00;77664.91;4971071;28;19914;-68
2022/07/10 05:58:56;;;;;;;;;;;;;;;-142.75;100.00;77659.00;4972005;28;20299;-69
2022/07/10 06:01:22;;;;;;;;;;;;;;;-142.75;100.00;77647.19;4972201;28;19985;-69
2022/07/10 06:03:47;;;;;;;;;;;;;;;-142.75;100.00;77629.47;4972197;28;19915;-68
2022/07/10 06:06:15;;;;;;;;;;;;;;;-142.75;100.00;77625.53;4971233;28;19921;-69
2022/07/10 06:08:40;;;;;;;;;;;;;;;-142.75;100.00;77609.78;4971644;28;19937;-68
2022/07/10 06:11:05;;;;;;;;;;;;;;;-142.75;100.00;77594.03;4972063;28;20014;-68
2022/07/10 06:13:30;;;;;;;;;;;;;;;-142.75;100.00;77594.03;4972059;28;19914;-69
2022/07/10 06:15:56;;;;;;;;;;;;;;;-142.75;100.00;77594.03;4970775;28;20380;-69
2022/07/10 06:18:21;;;;;;;;;;;;;;;-142.75;100.00;77596.00;4971734;28;19967;-69
2022/07/10 06:20:46;;;;;;;;;;;;;;;-142.75;100.00;77594.03;4971725;28;20364;-68
2022/07/10 06:23:11;;;;;;;;;;;;;;;-142.75;100.00;77611.75;5054301;22;19929;-70
2022/07/10 06:25:36;;;;;;;;;;;;;;;-142.75;100.00;77596.00;5052289;28;19925;-70
2022/07/10 06:28:02;;;;;;;;;;;;;;;-142.75;100.00;77601.91;5053190;28;19974;-69
2022/07/10 06:30:27;;;;;;;;;;;;;;;-142.75;100.00;77594.03;5035449;28;19982;-70
2022/07/10 06:32:52;;;;;;;;;;;;;;;-142.75;100.00;77597.97;5035461;28;19912;-69
2022/07/10 06:35:17;;;;;;;;;;;;;;;-142.75;100.00;77590.09;5053261;28;20367;-70
2022/07/10 06:37:42;;;;;;;;;;;;;;;-142.75;100.00;77584.19;5053256;28;19913;-68
2022/07/10 06:40:11;;;;;;;;;;;;;;;-142.75;100.00;77576.31;5053071;28;19980;-70
2022/07/10 06:42:36;;;;;;;;;;;;;;;-142.75;100.00;77562.53;5053068;28;19913;-70
2022/07/10 06:45:01;;;;;;;;;;;;;;;-142.75;100.00;77538.91;5053142;28;19924;-69
2022/07/10 06:50:10;;;;;;;;;;;;;;;-142.75;100.00;77527.09;5052846;28;19962;-70
2022/07/10 06:52:35;;;;;;;;;;;;;;;-142.75;100.00;77513.31;5035047;28;20003;-70
2022/07/10 06:55:01;;;;;;;;;;;;;;;-142.75;100.00;77491.66;5052817;28;20518;-70
2022/07/10 06:57:26;;;;;;;;;;;;;;;-142.75;100.00;77483.78;5052886;28;20275;-70
2022/07/10 06:59:52;;;;;;;;;;;;;;;-142.75;100.00;77466.03;5052633;28;19917;-70
2022/07/10 07:02:17;;;;;;;;;;;;;;;-142.75;100.00;77460.13;5052721;28;19917;-70
2022/07/10 07:04:44;;;;;;;;;;;;;;;-142.75;100.00;77464.09;5052717;28;20007;-71
2022/07/10 07:07:09;;;;;;;;;;;;;;;-142.75;100.00;77471.97;5052678;28;19955;-70
2022/07/10 07:09:35;;;;;;;;;;;;;;;-142.75;100.00;77471.97;5052270;28;19964;-71
2022/07/10 07:12:00;;;;;;;;;;;;;;;-142.75;100.00;77475.91;5034736;28;20023;-70
2022/07/10 07:14:25;;;;;;;;;;;;;;;-142.75;100.00;77487.72;5052659;28;19912;-70
2022/07/10 07:17:08;;;;;;;;;;;;;;;-142.75;100.00;77487.72;5052495;28;19939;-70
2022/07/10 07:23:09;;;;;;;;;;;;;;;-142.75;100.00;77479.84;5052272;28;20347;-70
2022/07/10 07:25:06;;;;;;;;;;;;;;;-142.75;100.00;77456.22;5052665;28;19992;-71
2022/07/10 07:27:32;;;;;;;;;;;;;;;-142.75;100.00;77452.25;5034584;28;20409;-69
2022/07/10 07:30:00;;;;;;;;;;;;;;;-142.75;100.00;77448.34;5051982;28;19979;-70
2022/07/10 07:32:25;;;;;;;;;;;;;;;-142.75;100.00;77438.47;5052090;28;20437;-70
2022/07/10 07:34:51;;;;;;;;;;;;;;;-142.75;100.00;77438.47;5034482;28;20015;-71
2022/07/10 07:37:16;;;;;;;;;;;;;;;-142.75;100.00;77428.63;5052280;28;19920;-70
2022/07/10 07:39:41;;;;;;;;;;;;;;;-142.75;100.00;77424.69;5051887;28;20382;-70
2022/07/10 07:42:06;;;;;;;;;;;;;;;-142.75;100.00;77422.72;5052215;28;19963;-70
2022/07/10 07:44:31;;;;;;;;;;;;;;;-142.75;100.00;77414.84;5052222;28;19916;-70
2022/07/10 07:46:56;;;;;;;;;;;;;;;-142.75;100.00;77405.00;5051858;28;20392;-70
2022/07/10 07:49:22;;;;;;;;;;;;;;;-142.75;100.00;77416.81;5033925;28;19917;-69
2022/07/10 07:51:48;;;;;;;;;;;;;;;-142.75;100.00;77416.81;5051999;28;19919;-70
2022/07/10 07:54:13;;;;;;;;;;;;;;;-142.75;100.00;77401.06;5052074;28;19999;-70
2022/07/10 07:56:38;;;;;;;;;;;;;;;-142.75;100.00;77391.22;5038236;28;19948;-70
2022/07/10 07:59:04;;;;;;;;;;;;;;;-142.75;100.00;77389.25;5031788;28;19914;-72
2022/07/10 08:01:29;;;;;;;;;;;;;;;-142.75;100.00;77373.50;5031922;28;19913;-68
2022/07/10 08:03:55;;;;;;;;;;;;;;;-142.75;100.00;77365.63;5039343;28;20290;-70
2022/07/10 08:06:20;;;;;;;;;;;;;;;-142.75;100.00;77353.81;5042559;28;19927;-70
2022/07/10 08:08:45;;;;;;;;;;;;;;;-142.75;100.00;77351.84;5040308;28;19956;-70
2022/07/10 08:11:11;;;;;;;;;;;;;;;-142.75;100.00;77357.75;5038620;28;19931;-69
2022/07/10 08:13:36;;;;;;;;;;;;;;;-142.75;100.00;77355.78;5029142;28;20015;-71
2022/07/10 08:16:01;;;;;;;;;;;;;;;-142.75;100.00;77340.03;5051634;28;19923;-70
2022/07/10 08:18:26;;;;;;;;;;;;;;;-142.75;100.00;77336.09;5051444;28;20370;-69
2022/07/10 08:20:51;;;;;;;;;;;;;;;-142.75;100.00;77320.34;5051941;28;19924;-70
2022/07/10 08:23:17;;;;;;;;;;;;;;;-142.75;100.00;77310.50;5024825;28;19920;-70
2022/07/10 08:25:42;;;;;;;;;;;;;;;-142.75;100.00;77294.75;5040263;28;19920;-70
2022/07/10 08:28:09;;;;;;;;;;;;;;;-142.75;100.00;77279.00;5039990;28;19960;-70
2022/07/10 08:30:34;;;;;;;;;;;;;;;-142.75;100.00;77267.19;5055484;28;20418;-70
2022/07/10 08:32:59;;;;;;;;;;;;;;;-142.75;100.00;77261.28;5053873;28;19917;-71
2022/07/10 08:35:25;;;;;;;;;;;;;;;-142.75;100.00;77249.47;5037652;28;19913;-70
2022/07/10 08:37:50;;;;;;;;;;;;;;;-142.75;100.00;77231.75;5055402;28;19913;-70
2022/07/10 08:40:16;;;;;;;;;;;;;;;-142.75;100.00;77212.06;5055326;28;19912;-70
2022/07/10 08:42:43;;;;;;;;;;;;;;;-142.75;100.00;77196.31;5037369;28;20003;-70
2022/07/10 08:45:09;;;;;;;;;;;;;;;-142.75;100.00;77200.25;5055312;28;20406;-70
2022/07/10 08:47:34;;;;;;;;;;;;;;;-142.75;100.00;77192.38;5055165;28;19956;-71
2022/07/10 08:49:59;;;;;;;;;;;;;;;-142.75;100.00;77188.44;5054875;28;19924;-70
2022/07/10 08:52:26;;;;;;;;;;;;;;;-142.75;100.00;77170.72;5037222;28;19912;-70
2022/07/10 08:54:52;;;;;;;;;;;;;;;-142.75;100.00;77164.81;5054805;28;19917;-69
2022/07/10 08:57:17;;;;;;;;;;;;;;;-142.75;100.00;77141.19;5044494;28;19913;-70
2022/07/10 08:59:42;;;;;;;;;;;;;;;-142.75;100.00;77133.31;5045472;28;19944;-70
2022/07/10 09:02:08;;;;;;;;;;;;;;;-142.75;100.00;77117.56;5044532;28;20379;-69
2022/07/10 09:04:33;;;;;;;;;;;;;;;-142.75;100.00;77097.88;5055079;28;19912;-69
2022/07/10 09:06:58;;;;;;;;;;;;;;;-142.75;100.00;77103.78;5037048;28;19913;-69
2022/07/10 09:09:24;;;;;;;;;;;;;;;-142.75;100.00;77078.19;5054523;28;19917;-70
2022/07/10 09:11:54;;;;;;;;;;;;;;;-142.75;100.00;77058.50;5053221;28;19913;-69
2022/07/10 09:14:23;;;;;;;;;;;;;;;-142.75;100.00;77044.72;5054805;28;19917;-70
2022/07/10 09:16:49;;;;;;;;;;;;;;;-142.75;100.00;77054.56;5036907;28;19917;-70
2022/07/10 09:19:21;;;;;;;;;;;;;;;-142.75;100.00;77046.69;5036480;28;19920;-70
2022/07/10 09:21:50;;;;;;;;;;;;;;;-142.75;100.00;77054.56;5054517;28;20302;-69
2022/07/10 09:24:21;;;;;;;;;;;;;;;-142.75;100.00;77038.81;5054059;28;20003;-68
2022/07/10 09:26:57;;;;;;;;;;;;;;;-142.75;100.00;77023.06;5042525;28;19924;-69
2022/07/10 09:29:22;;;;;;;;;;;;;;;-142.75;100.00;77011.25;5026703;28;19925;-68
2022/07/10 09:31:51;;;;;;;;;;;;;;;-142.75;100.00;77005.34;5042453;28;19913;-68
2022/07/10 09:34:17;;;;;;;;;;;;;;;-142.75;100.00;76979.75;5054290;28;19919;-70
2022/07/10 09:36:42;;;;;;;;;;;;;;;-142.75;100.00;76981.72;5054442;28;20302;-70
2022/07/10 09:39:08;;;;;;;;;;;;;;;-142.75;100.00;76975.81;5053988;28;19917;-70
2022/07/10 09:41:33;;;;;;;;;;;;;;;-142.75;100.00;76958.09;5052805;28;19919;-70
2022/07/10 09:44:08;;;;;;;;;;;;;;;-142.75;100.00;76960.06;5053428;28;19913;-68
2022/07/10 09:46:38;;;;;;;;;;;;;;;-142.75;100.00;76965.97;5050062;28;19939;-71
2022/07/10 09:49:03;;;;;;;;;;;;;;;-142.75;100.00;76971.88;5053769;28;19913;-70
2022/07/10 09:51:33;;;;;;;;;;;;;;;-142.75;100.00;76973.84;5036105;28;19917;-68
2022/07/10 09:53:59;;;;;;;;;;;;;;;-142.75;100.00;76965.97;5052581;28;19917;-71
2022/07/10 09:56:26;;;;;;;;;;;;;;;-142.75;100.00;76944.31;5054100;28;20378;-70
2022/07/10 09:58:52;;;;;;;;;;;;;;;-142.75;100.00;76928.56;5052377;28;19913;-70
2022/07/10 10:01:18;;;;;;;;;;;;;;;-142.75;100.00;76914.78;5053917;28;19920;-70
2022/07/10 10:03:43;;;;;;;;;;;;;;;-142.75;100.00;76879.34;5053898;28;19913;-71
2022/07/10 10:06:11;;;;;;;;;;;;;;;-142.75;100.00;76865.56;5053898;28;20003;-70
2022/07/10 10:08:42;;;;;;;;;;;;;;;-142.75;100.00;76839.97;5053402;28;19919;-69
2022/07/10 10:11:08;;;;;;;;;;;;;;;-142.75;100.00;76834.06;5052495;28;19983;-71
2022/07/10 10:13:34;;;;;;;;;;;;;;;-142.75;100.00;76847.84;5038026;28;20464;-69
2022/07/10 10:16:01;;;;;;;;;;;;;;;-142.75;100.00;76804.53;5053735;28;19920;-71
2022/07/10 10:18:26;;;;;;;;;;;;;;;-142.75;100.00;76759.28;5053369;28;20311;-70
2022/07/10 10:20:53;;;;;;;;;;;;;;;-142.75;100.00;76727.78;5053622;28;20007;-71
2022/07/10 10:23:22;;;;;;;;;;;;;;;-142.75;99.63;76731.72;5051055;28;19917;-70
2022/07/10 10:25:48;;;;;;;;;;;;;;;-142.75;100.00;76708.09;5035574;28;20374;-70
2022/07/10 10:28:15;;;;;;;;;;;;;;;-142.75;97.71;76714.00;5035063;28;19917;-70
2022/07/10 10:30:42;;;;;;;;;;;;;;;-142.75;100.00;76704.16;5053357;28;20374;-71
2022/07/10 10:33:26;;;;;;;;;;;;;;;-142.75;100.00;76696.28;5035410;28;19952;-71
2022/07/10 10:35:51;;;;;;;;;;;;;;;-142.75;96.86;76702.19;5053267;28;19940;-70
2022/07/10 10:38:17;;;;;;;;;;;;;;;-142.75;96.24;76700.22;5052976;28;20002;-70
2022/07/10 10:40:42;;;;;;;;;;;;;;;-142.75;92.26;76714.00;5053176;28;19944;-70
2022/07/10 10:43:23;;;;;;;;;;;;;;;-142.75;100.00;76723.84;5053046;28;19919;-71
2022/07/10 10:45:49;;;;;;;;;;;;;;;-142.75;99.03;76729.75;5053133;28;19913;-69
2022/07/10 10:48:15;;;;;;;;;;;;;;;-142.75;97.56;76735.66;5052698;28;20012;-70
2022/07/10 10:50:47;;;;;;;;;;;;;;;-142.75;97.07;76755.34;5052973;28;19924;-70
2022/07/10 10:53:19;;;;;;;;;;;;;;;-142.75;100.00;76757.31;5052440;28;19919;-71
2022/07/10 10:55:59;;;;;;;;;;;;;;;-142.75;100.00;76753.38;5035355;28;20278;-71
2022/07/10 10:58:25;;;;;;;;;;;;;;;-142.75;100.00;76780.94;5046132;28;19939;-69
2022/07/10 11:00:50;;;;;;;;;;;;;;;-142.75;100.00;76771.09;5041236;28;20363;-68
2022/07/10 11:03:16;;;;;;;;;;;;;;;-142.75;100.00;76784.88;5043090;28;19999;-70
2022/07/10 11:05:42;;;;;;;;;;;;;;;-142.75;100.00;76778.97;5026734;28;19916;-70
2022/07/10 11:08:08;;;;;;;;;;;;;;;-142.75;100.00;76775.03;5043627;28;19912;-69
2022/07/10 11:10:40;;;;;;;;;;;;;;;-142.75;100.00;76765.19;5052059;28;20389;-70
2022/07/10 11:13:05;;;;;;;;;;;;;;;-142.75;100.00;76729.75;5052335;28;19919;-70
2022/07/10 11:15:34;;;;;;;;;;;;;;;-142.75;100.00;76731.72;5034521;28;19913;-70
2022/07/10 11:18:05;;;;;;;;;;;;;;;-142.75;100.00;76717.94;5041109;28;19916;-70
2022/07/10 11:20:49;;;;;;;;;;;;;;;-142.75;100.00;76725.81;5052571;28;19912;-70
2022/07/10 11:23:27;;;;;;;;;;;;;;;-142.75;100.00;76727.78;5052311;28;19916;-70
2022/07/10 11:26:01;;;;;;;;;;;;;;;-142.75;100.00;76714.00;5052356;28;19917;-69
2022/07/10 11:28:50;;;;;;;;;;;;;;;-142.75;98.35;76715.97;5034171;28;20072;-70
2022/07/10 11:31:16;;;;;;;;;;;;;;;-142.75;100.00;76676.59;5041665;28;19917;-69
2022/07/10 11:33:43;;;;;;;;;;;;;;;-142.75;100.00;76641.16;5052163;28;20297;-71
2022/07/10 11:36:13;;;;;;;;;;;;;;;-142.75;97.51;76605.72;5034341;28;19932;-71
2022/07/10 11:38:38;;;;;;;;;;;;;;;-142.75;92.71;76609.66;5051963;28;20397;-69
2022/07/10 11:41:04;;;;;;;;;;;;;;;-142.75;89.45;76589.97;5052195;28;19956;-70
2022/07/10 11:43:29;;;;;;;;;;;;;;;-142.75;86.78;76593.91;5046175;28;19924;-70
2022/07/10 11:45:59;;;;;;;;;;;;;;;-142.75;86.20;76588.00;5048933;28;19913;-70
2022/07/10 11:48:24;;;;;;;;;;;;;;;-142.75;85.45;76605.72;5051844;28;19920;-71
2022/07/10 11:50:50;;;;;;;;;;;;;;;-142.75;82.33;76586.03;5034235;28;19921;-69
2022/07/10 11:53:22;;;;;;;;;;;;;;;-142.75;87.44;76605.72;5032650;28;19917;-70
2022/07/10 11:55:49;;;;;;;;;;;;;;;-142.75;83.75;76593.91;5051999;28;19913;-70
2022/07/10 11:58:17;;;;;;;;;;;;;;;-142.75;82.23;76591.94;5051602;28;19912;-70
2022/07/10 12:00:43;;;;;;;;;;;;;;;-142.75;85.16;76578.16;5051934;28;20370;-70
2022/07/10 12:03:21;;;;;;;;;;;;;;;-142.75;95.14;76554.53;5051776;28;20054;-70
2022/07/10 12:05:47;;;;;;;;;;;;;;;-142.75;81.56;76564.38;5056206;28;19921;-70
2022/07/10 12:08:15;;;;;;;;;;;;;;;-142.75;88.13;76534.84;5055754;28;19923;-70
2022/07/10 12:10:41;;;;;;;;;;;;;;;-142.75;79.23;76554.53;5055972;28;19917;-69
2022/07/10 12:13:07;;;;;;;;;;;;;;;-142.75;80.97;76534.84;5038088;28;20004;-68
2022/07/10 12:15:33;;;;;;;;;;;;;;;-142.75;81.17;76503.38;5037983;28;19924;-70
2022/07/10 12:17:58;;;;;;;;;;;;;;;-142.75;78.56;76475.81;5055663;28;19917;-69
2022/07/10 12:20:24;;;;;;;;;;;;;;;-142.75;77.74;76456.13;5038062;28;20317;-70
2022/07/10 12:22:49;;;;;;;;;;;;;;;-142.75;75.94;76460.06;5055241;28;20382;-71
2022/07/10 12:25:15;;;;;;;;;;;;;;;-142.75;79.47;76479.75;5055172;28;19920;-71